Time;durP1;ratioP1;P1;durP2;ratioP2;P2;SDS_P1;SDS_P2;PMS_P1;PMS_P2;Temp;Humidity;BMP_temperature;BMP_pressure;BME280_temperature;BME280_humidity;BME280_pressure;Samples;Min_cycle;Max_cycle;Signal;HPM_P1;HPM_P2
2022/11/19 00:01:20;;;;;;;11.27;8.00;;;1.50;99.90;;;;;;5084645;28;20044;-71
2022/11/19 00:03:46;;;;;;;11.90;8.45;;;1.40;99.90;;;;;;5086140;28;20123;-72
2022/11/19 00:06:14;;;;;;;11.82;8.38;;;2.00;99.90;;;;;;5082795;28;20503;-74
2022/11/19 00:08:40;;;;;;;10.80;7.20;;;1.30;99.90;;;;;;5081856;28;20083;-74
2022/11/19 00:14:05;;;;;;;10.10;7.22;;;1.30;99.90;;;;;;5080441;28;20052;-73
2022/11/19 00:16:31;;;;;;;11.55;7.15;;;1.30;99.90;;;;;;5050328;28;20036;-74
2022/11/19 00:18:57;;;;;;;10.68;6.97;;;1.30;99.90;;;;;;5080735;28;20055;-74
2022/11/19 00:21:23;;;;;;;10.77;7.28;;;1.30;99.90;;;;;;5086995;28;20074;-76
2022/11/19 00:23:53;;;;;;;9.52;6.60;;;1.30;99.90;;;;;;5090686;28;20086;-74
2022/11/19 00:26:18;;;;;;;8.27;5.78;;;1.20;99.90;;;;;;5088748;28;20056;-75
2022/11/19 00:28:44;;;;;;;8.77;6.10;;;1.30;99.90;;;;;;5089065;28;20048;-75
2022/11/19 00:31:12;;;;;;;9.65;6.50;;;1.30;99.90;;;;;;5089163;28;20032;-75
2022/11/19 00:33:42;;;;;;;9.63;6.47;;;1.20;99.90;;;;;;5057581;28;20097;-75
2022/11/19 00:36:10;;;;;;;9.02;5.70;;;1.20;99.90;;;;;;5069112;28;20067;-74
2022/11/19 00:38:36;;;;;;;7.68;4.82;;;1.20;99.90;;;;;;5090258;28;20079;-74
2022/11/19 00:41:01;;;;;;;9.23;5.72;;;1.30;99.90;;;;;;5072708;28;20451;-73
2022/11/19 00:43:45;;;;;;;9.15;6.03;;;1.40;99.90;;;;;;5091426;28;20067;-77
2022/11/19 00:46:12;;;;;;;8.30;5.68;;;1.60;99.90;;;;;;5073035;28;20083;-77
2022/11/19 00:48:38;;;;;;;8.93;5.50;;;1.40;99.90;;;;;;5068277;28;20059;-75
2022/11/19 00:51:06;;;;;;;8.18;4.47;;;1.10;99.90;;;;;;5090061;28;20052;-76
2022/11/19 00:53:31;;;;;;;6.50;4.00;;;1.10;99.90;;;;;;5074224;28;20051;-78
2022/11/19 00:56:02;;;;;;;8.98;4.93;;;1.10;99.90;;;;;;5069026;28;20040;-78
2022/11/19 00:58:28;;;;;;;9.35;5.43;;;1.10;99.90;;;;;;5089827;28;20498;-76
2022/11/19 01:00:54;;;;;;;7.47;3.70;;;1.00;99.90;;;;;;5090138;28;20130;-76
2022/11/19 01:03:21;;;;;;;8.32;4.90;;;1.00;99.90;;;;;;5089711;28;20048;-77
2022/11/19 01:05:47;;;;;;;7.78;5.07;;;1.00;99.90;;;;;;5089612;28;20480;-79
2022/11/19 01:08:12;;;;;;;7.82;4.90;;;1.50;99.90;;;;;;5073633;28;20059;-79
2022/11/19 01:10:38;;;;;;;9.43;5.30;;;0.80;99.90;;;;;;5089843;28;20043;-75
2022/11/19 01:15:49;;;;;;;7.93;4.70;;;0.80;99.90;;;;;;5089408;28;20494;-75
2022/11/19 01:18:16;;;;;;;8.25;5.20;;;0.80;99.90;;;;;;5089593;28;20059;-77
2022/11/19 01:20:42;;;;;;;7.10;4.22;;;1.20;99.90;;;;;;5086530;28;20080;-74
2022/11/19 01:23:07;;;;;;;8.55;5.20;;;0.70;99.90;;;;;;5089610;28;20088;-80
2022/11/19 01:25:33;;;;;;;7.93;3.92;;;0.70;99.90;;;;;;5088642;28;20051;-73
2022/11/19 01:27:59;;;;;;;7.20;4.22;;;0.70;99.90;;;;;;5090130;28;20551;-75
2022/11/19 01:30:25;;;;;;;6.45;3.15;;;0.70;99.90;;;;;;5086394;28;20503;-78
2022/11/19 01:32:50;;;;;;;8.10;4.70;;;0.80;99.90;;;;;;5089832;28;20048;-82
2022/11/19 01:35:16;;;;;;;7.72;5.03;;;0.70;99.90;;;;;;5072434;28;20044;-83
2022/11/19 01:37:41;;;;;;;8.80;5.15;;;0.70;99.90;;;;;;5090047;28;20047;-83
2022/11/19 01:40:09;;;;;;;9.13;5.53;;;0.70;99.90;;;;;;5073268;28;20131;-82
2022/11/19 01:42:49;;;;;;;7.93;4.97;;;0.60;99.90;;;;;;5089623;28;20369;-82
2022/11/19 01:45:36;;;;;;;8.50;5.65;;;0.60;99.90;;;;;;5067585;28;20045;-82
2022/11/19 01:48:26;;;;;;;8.57;5.07;;;0.60;99.90;;;;;;5089330;28;20571;-83
2022/11/19 01:51:12;;;;;;;6.85;3.92;;;0.50;99.90;;;;;;5091119;28;20048;-79
2022/11/19 01:53:38;;;;;;;7.80;4.85;;;0.90;99.90;;;;;;5089591;28;20048;-84
2022/11/19 01:56:07;;;;;;;7.88;5.25;;;0.70;99.90;;;;;;5086816;28;20075;-83
2022/11/19 01:58:39;;;;;;;8.10;5.22;;;0.50;99.90;;;;;;5089899;28;20066;-78
2022/11/19 02:01:07;;;;;;;8.70;5.30;;;0.40;99.90;;;;;;5089586;28;20067;-82
2022/11/19 02:03:33;;;;;;;7.53;5.07;;;0.40;99.90;;;;;;5087980;28;20528;-84
2022/11/19 02:06:01;;;;;;;8.20;4.78;;;0.80;99.90;;;;;;5071073;28;20036;-82
2022/11/19 02:08:33;;;;;;;8.40;5.00;;;0.40;99.90;;;;;;5071621;28;20049;-83
2022/11/19 02:11:14;;;;;;;8.40;5.40;;;0.80;99.90;;;;;;5089039;28;20376;-80
2022/11/19 02:14:01;;;;;;;9.15;5.30;;;0.40;99.90;;;;;;5089390;28;20063;-83
2022/11/19 02:16:37;;;;;;;7.82;3.97;;;0.30;99.90;;;;;;5088064;28;20040;-75
2022/11/19 02:19:30;;;;;;;8.95;5.38;;;0.40;99.90;;;;;;5072677;28;20051;-84
2022/11/19 02:22:25;;;;;;;9.05;5.70;;;0.80;99.90;;;;;;5071476;28;20083;-82
2022/11/19 02:25:14;;;;;;;8.82;5.43;;;0.20;99.90;;;;;;5084966;28;20047;-83
2022/11/19 02:28:03;;;;;;;8.57;4.95;;;0.20;99.90;;;;;;5068445;28;20576;-81
2022/11/19 02:30:37;;;;;;;8.65;5.28;;;0.30;99.90;;;;;;5084810;28;20044;-84
2022/11/19 02:33:05;;;;;;;8.73;5.40;;;0.20;99.90;;;;;;5072547;28;20040;-83
2022/11/19 02:35:59;;;;;;;8.55;5.15;;;0.20;99.90;;;;;;5070645;28;20056;-82
2022/11/19 02:38:40;;;;;;;9.98;5.25;;;0.10;99.90;;;;;;5087259;28;20048;-84
2022/11/19 02:41:36;;;;;;;8.23;5.45;;;1.10;99.90;;;;;;5071658;28;20040;-83
2022/11/19 02:47:19;;;;;;;7.47;4.80;;;0.00;99.90;;;;;;5109926;28;20071;-84
2022/11/19 02:49:46;;;;;;;8.05;4.95;;;0.00;99.90;;;;;;5069567;28;20126;-83
2022/11/19 02:52:16;;;;;;;8.70;5.45;;;0.00;99.90;;;;;;5093298;28;20050;-81
2022/11/19 02:54:42;;;;;;;8.93;5.03;;;0.00;99.90;;;;;;5092365;28;20040;-82
2022/11/19 02:57:11;;;;;;;8.23;5.22;;;-0.10;99.90;;;;;;5092198;28;20101;-84
2022/11/19 03:05:53;;;;;;;7.60;4.57;;;-0.10;99.90;;;;;;5031696;28;20497;-85
2022/11/19 03:08:19;;;;;;;8.85;5.07;;;0.00;99.90;;;;;;5015127;28;20172;-83
2022/11/19 03:11:06;;;;;;;8.95;5.10;;;0.50;99.90;;;;;;5054230;28;20060;-85
2022/11/19 03:17:04;;;;;;;7.53;4.80;;;-0.20;99.90;;;;;;5088638;28;20054;-85
2022/11/19 03:19:35;;;;;;;7.13;4.32;;;-0.20;99.90;;;;;;5077207;28;20074;-82
2022/11/19 03:22:11;;;;;;;8.50;5.00;;;-0.20;99.90;;;;;;5094863;28;20131;-83
2022/11/19 03:24:44;;;;;;;7.63;4.63;;;0.10;99.90;;;;;;5094474;28;20056;-86
2022/11/19 03:27:24;;;;;;;7.53;4.55;;;-0.30;99.90;;;;;;5077696;28;20483;-84
2022/11/19 03:29:55;;;;;;;6.93;4.03;;;-0.30;99.90;;;;;;5075428;28;20046;-82
2022/11/19 03:32:26;;;;;;;7.50;4.32;;;0.10;99.90;;;;;;5089842;28;20046;-84
2022/11/19 03:34:58;;;;;;;8.30;4.85;;;-0.30;99.90;;;;;;5095451;28;20069;-79
2022/11/19 03:37:25;;;;;;;7.40;4.57;;;0.20;99.90;;;;;;5112544;28;20051;-83
2022/11/19 03:39:54;;;;;;;7.43;4.70;;;-0.30;99.90;;;;;;5075253;28;20492;-85
2022/11/19 03:42:22;;;;;;;7.85;4.55;;;-0.30;99.90;;;;;;5091127;28;20044;-86
2022/11/19 03:44:50;;;;;;;6.47;3.90;;;0.30;99.90;;;;;;5058625;28;20055;-84
2022/11/19 03:47:20;;;;;;;7.55;4.70;;;0.40;99.90;;;;;;5092597;28;20062;-84
2022/11/19 03:49:52;;;;;;;7.68;4.82;;;-0.30;99.90;;;;;;5095789;28;20048;-84
2022/11/19 03:52:20;;;;;;;7.88;4.57;;;-0.40;99.90;;;;;;5095701;28;20047;-85
2022/11/19 03:54:46;;;;;;;7.88;4.65;;;-0.40;99.90;;;;;;5094410;28;20040;-85
2022/11/19 03:57:16;;;;;;;7.93;4.95;;;-0.40;99.90;;;;;;5063582;28;20039;-89
2022/11/19 03:59:41;;;;;;;7.35;4.45;;;-0.20;99.90;;;;;;5085142;28;20388;-87
2022/11/19 04:02:09;;;;;;;8.18;5.10;;;-0.50;99.90;;;;;;5078759;28;20050;-89
2022/11/19 04:04:36;;;;;;;8.95;5.15;;;0.10;99.90;;;;;;5079545;28;20040;-88
2022/11/19 04:07:18;;;;;;;8.18;5.03;;;-0.50;99.90;;;;;;5093145;28;20048;-83
2022/11/19 04:09:44;;;;;;;;;;;-0.40;99.90;;;;;;5095746;28;20063;-85
2022/11/19 04:12:19;;;;;;;7.72;4.60;;;-0.50;99.90;;;;;;5094793;28;19927;-83
2022/11/19 04:14:45;;;;;;;7.78;4.70;;;-0.50;99.90;;;;;;5094025;28;20427;-79
2022/11/19 04:17:11;;;;;;;7.55;4.90;;;-0.50;99.90;;;;;;5113187;28;20502;-84
2022/11/19 04:19:36;;;;;;;7.93;4.85;;;-0.20;99.90;;;;;;5078315;28;20142;-84
2022/11/19 04:22:02;;;;;;;8.52;4.90;;;-0.60;99.90;;;;;;5076577;28;20048;-85
2022/11/19 04:24:28;;;;;;;8.02;5.00;;;-0.60;99.90;;;;;;5093060;28;20522;-85
2022/11/19 04:26:54;;;;;;;9.00;5.05;;;-0.60;99.90;;;;;;5052268;28;20051;-86
2022/11/19 04:29:19;;;;;;;7.85;4.88;;;-0.30;99.90;;;;;;5075023;28;20192;-86
2022/11/19 04:31:48;;;;;;;7.90;5.00;;;-0.60;99.90;;;;;;5094903;28;20059;-83
2022/11/19 04:34:13;;;;;;;7.85;4.63;;;-0.60;99.90;;;;;;5077493;28;20051;-83
2022/11/19 04:36:41;;;;;;;8.30;4.93;;;-0.20;99.90;;;;;;5093885;28;20048;-84
2022/11/19 04:39:08;;;;;;;8.77;5.30;;;0.30;99.90;;;;;;5076259;28;20032;-86
2022/11/19 04:41:34;;;;;;;8.68;5.20;;;-0.70;99.90;;;;;;5075614;28;20070;-82
2022/11/19 04:44:00;;;;;;;8.60;5.78;;;-0.70;99.90;;;;;;5076643;28;20055;-88
2022/11/19 04:46:26;;;;;;;7.38;4.63;;;-0.70;99.90;;;;;;5094314;28;20075;-84
2022/11/19 04:48:52;;;;;;;8.77;5.43;;;-0.70;99.90;;;;;;5087919;28;20071;-85
2022/11/19 04:51:18;;;;;;;10.05;5.78;;;-0.70;99.90;;;;;;5077281;28;20592;-84
2022/11/19 04:53:43;;;;;;;9.07;5.40;;;-0.70;99.90;;;;;;5094750;28;20055;-88
2022/11/19 04:56:09;;;;;;;9.02;5.63;;;-0.70;99.90;;;;;;5089502;28;20555;-84
2022/11/19 04:58:36;;;;;;;8.18;5.50;;;-0.70;99.90;;;;;;5092517;28;20564;-87
2022/11/19 05:01:02;;;;;;;9.35;5.60;;;-0.30;99.90;;;;;;5076608;28;20044;-88
2022/11/19 05:03:27;;;;;;;7.43;4.85;;;0.10;99.90;;;;;;5094253;28;20150;-83
2022/11/19 05:05:54;;;;;;;8.80;5.30;;;-0.70;99.90;;;;;;5087209;28;20402;-77
2022/11/19 05:08:19;;;;;;;8.88;5.35;;;-0.70;99.90;;;;;;5101650;28;20066;-84
2022/11/19 05:10:45;;;;;;;9.38;6.00;;;-0.70;99.90;;;;;;5093476;28;20089;-85
2022/11/19 05:13:11;;;;;;;8.65;5.93;;;-0.30;99.90;;;;;;5059476;28;20033;-84
2022/11/19 05:15:37;;;;;;;9.32;5.72;;;-0.80;99.90;;;;;;5058040;28;20136;-79
2022/11/19 05:18:03;;;;;;;8.43;5.40;;;-0.80;99.90;;;;;;5075941;28;20039;-80
2022/11/19 05:20:29;;;;;;;8.20;5.70;;;-0.80;99.90;;;;;;5055976;28;20145;-82
2022/11/19 05:22:54;;;;;;;8.38;5.43;;;-0.80;99.90;;;;;;5078519;28;20047;-82
2022/11/19 05:25:20;;;;;;;9.38;6.18;;;0.00;99.90;;;;;;5055645;28;20055;-82
2022/11/19 05:27:46;;;;;;;10.82;6.78;;;-0.90;99.90;;;;;;5064901;28;20458;-87
2022/11/19 05:30:12;;;;;;;9.63;6.32;;;-0.90;99.90;;;;;;5064914;28;20044;-84
2022/11/19 05:32:37;;;;;;;10.10;6.80;;;-0.40;99.90;;;;;;5084557;28;20070;-87
2022/11/19 05:35:04;;;;;;;9.90;6.50;;;-0.90;99.90;;;;;;5049650;28;20478;-85
2022/11/19 05:37:30;;;;;;;9.77;6.63;;;-1.00;99.90;;;;;;5081848;28;20040;-88
2022/11/19 05:39:56;;;;;;;9.80;6.40;;;-0.50;99.90;;;;;;5080375;28;20048;-86
2022/11/19 05:42:21;;;;;;;10.27;6.78;;;-1.00;99.90;;;;;;5068075;28;20040;-86
2022/11/19 05:44:47;;;;;;;9.95;7.20;;;-0.30;99.90;;;;;;5090161;28;20113;-83
2022/11/19 05:47:15;;;;;;;10.85;7.00;;;-1.00;99.90;;;;;;5067754;28;20399;-84
2022/11/19 05:49:40;;;;;;;10.82;7.50;;;-1.10;99.90;;;;;;5087255;28;20048;-81
2022/11/19 05:52:06;;;;;;;11.35;6.55;;;-1.10;99.90;;;;;;5085090;28;20099;-81
2022/11/19 05:54:32;;;;;;;12.30;8.70;;;-1.10;99.90;;;;;;5080697;28;20056;-87
2022/11/19 05:56:57;;;;;;;12.20;8.25;;;-1.10;99.90;;;;;;5065142;28;20635;-92
2022/11/19 05:59:23;;;;;;;12.13;8.50;;;-1.10;99.90;;;;;;5078449;28;20056;-84
2022/11/19 06:01:49;;;;;;;12.70;8.55;;;-0.80;99.90;;;;;;5081292;28;20044;-85
2022/11/19 06:04:15;;;;;;;12.68;8.77;;;-1.10;99.90;;;;;;5078311;28;20049;-83
2022/11/19 06:06:40;;;;;;;11.80;8.35;;;-0.60;99.90;;;;;;5088100;28;20051;-83
2022/11/19 06:09:06;;;;;;;13.00;9.10;;;-1.20;99.90;;;;;;5068820;28;20044;-84
2022/11/19 06:11:47;;;;;;;11.30;7.70;;;-1.20;99.90;;;;;;5055553;28;20083;-86
2022/11/19 06:14:13;;;;;;;12.48;9.05;;;-1.10;99.90;;;;;;5075233;28;20048;-84
2022/11/19 06:16:39;;;;;;;12.93;9.13;;;-1.20;99.90;;;;;;5078184;28;20044;-83
2022/11/19 06:19:05;;;;;;;12.68;9.15;;;-0.90;99.90;;;;;;5074311;28;20092;-83
2022/11/19 06:21:30;;;;;;;12.63;9.15;;;-1.10;99.90;;;;;;5091072;28;20044;-88
2022/11/19 06:23:56;;;;;;;13.23;9.48;;;-1.20;99.90;;;;;;5072911;28;20048;-83
2022/11/19 06:26:27;;;;;;;13.90;9.35;;;-1.20;99.90;;;;;;5092902;28;20399;-84
2022/11/19 06:28:53;;;;;;;14.18;9.48;;;-1.20;99.90;;;;;;5086671;28;20048;-87
2022/11/19 06:31:20;;;;;;;15.07;9.70;;;-1.20;99.90;;;;;;5089019;28;20527;-85
2022/11/19 06:33:46;;;;;;;12.68;9.10;;;-1.10;99.90;;;;;;5091856;28;20130;-88
2022/11/19 06:36:12;;;;;;;13.43;9.90;;;-1.30;99.90;;;;;;5086470;28;20601;-88
2022/11/19 06:38:38;;;;;;;13.18;9.30;;;-1.30;99.90;;;;;;5070362;28;20120;-87
2022/11/19 06:41:04;;;;;;;12.90;8.93;;;-1.30;99.90;;;;;;5089951;28;20177;-91
2022/11/19 06:43:30;;;;;;;13.48;9.60;;;-1.30;99.90;;;;;;5095069;28;20066;-86
2022/11/19 06:45:55;;;;;;;12.77;9.75;;;-1.30;99.90;;;;;;5093171;28;20040;-82
2022/11/19 06:48:21;;;;;;;12.18;8.27;;;-0.50;99.90;;;;;;5055454;28;20059;-81
2022/11/19 06:50:47;;;;;;;12.63;9.43;;;-1.20;99.90;;;;;;5076076;28;20093;-81
2022/11/19 06:53:13;;;;;;;12.38;8.57;;;-0.80;99.90;;;;;;5086787;28;20384;-83
2022/11/19 06:55:38;;;;;;;12.13;8.88;;;-1.20;99.90;;;;;;5074734;28;20048;-85
2022/11/19 06:58:05;;;;;;;13.95;7.93;;;-1.30;99.90;;;;;;5085756;28;20032;-88
2022/11/19 07:00:32;;;;;;;11.55;8.73;;;-0.30;99.90;;;;;;5064776;28;20048;-85
2022/11/19 07:02:57;;;;;;;13.20;8.45;;;-1.30;99.90;;;;;;5074393;28;20082;-88
2022/11/19 07:05:23;;;;;;;12.60;8.48;;;-1.20;99.90;;;;;;5051641;28;20055;-85
2022/11/19 07:07:49;;;;;;;12.27;8.88;;;-0.50;99.90;;;;;;5074950;28;20048;-85
2022/11/19 07:10:15;;;;;;;11.48;7.65;;;-1.20;99.90;;;;;;5070086;28;20131;-88
2022/11/19 07:12:41;;;;;;;12.48;9.02;;;-1.30;99.90;;;;;;5095013;28;20044;-89
2022/11/19 07:15:07;;;;;;;14.15;9.70;;;-1.30;99.90;;;;;;5070618;28;20041;-91
2022/11/19 07:17:33;;;;;;;12.35;8.95;;;-1.30;99.90;;;;;;5089993;28;20472;-87
2022/11/19 07:19:58;;;;;;;13.75;9.80;;;-1.30;99.90;;;;;;5095267;28;20047;-86
2022/11/19 07:22:24;;;;;;;13.15;9.35;;;-0.50;99.90;;;;;;5079610;28;20047;-83
2022/11/19 07:24:50;;;;;;;13.15;9.25;;;-1.30;99.90;;;;;;5078444;28;20044;-89
2022/11/19 07:27:16;;;;;;;13.18;8.52;;;-1.20;99.90;;;;;;5060567;28;20040;-84
2022/11/19 07:29:41;;;;;;;13.05;9.32;;;-1.20;99.90;;;;;;5077981;28;20042;-86
2022/11/19 07:32:07;;;;;;;13.68;9.60;;;-1.20;99.90;;;;;;5078372;28;20040;-86
2022/11/19 07:34:33;;;;;;;12.82;7.85;;;-1.20;99.90;;;;;;5074888;28;20040;-85
2022/11/19 07:36:59;;;;;;;13.38;8.68;;;-1.20;99.90;;;;;;5078481;28;20059;-81
2022/11/19 07:39:24;;;;;;;13.95;9.52;;;-1.20;99.90;;;;;;5096120;28;20075;-84
2022/11/19 07:44:34;;;;;;;13.23;8.88;;;-0.60;99.90;;;;;;5094907;28;20075;-90
2022/11/19 07:47:00;;;;;;;11.98;8.70;;;-1.10;99.90;;;;;;5061965;28;20043;-83
2022/11/19 07:49:26;;;;;;;13.15;9.63;;;-1.10;99.90;;;;;;5062679;28;20040;-87
2022/11/19 07:51:52;;;;;;;12.82;9.23;;;-1.00;99.90;;;;;;5096362;28;20160;-88
2022/11/19 07:54:18;;;;;;;12.60;8.75;;;-1.00;99.90;;;;;;5076768;28;20123;-82
2022/11/19 07:56:44;;;;;;;14.02;9.50;;;-1.00;99.90;;;;;;5080247;28;20063;-83
2022/11/19 07:59:11;;;;;;;12.48;8.80;;;-0.40;99.90;;;;;;5093922;28;20035;-82
2022/11/19 08:01:37;;;;;;;12.00;8.45;;;-0.80;99.90;;;;;;5095323;28;20093;-85
2022/11/19 08:04:04;;;;;;;13.40;9.10;;;0.00;99.90;;;;;;5080196;28;20082;-87
2022/11/19 08:06:32;;;;;;;12.32;8.57;;;-0.90;99.90;;;;;;5070452;28;20047;-87
2022/11/19 08:08:57;;;;;;;13.70;8.93;;;-0.90;99.90;;;;;;5080108;28;20051;-90
2022/11/19 08:11:24;;;;;;;13.50;9.73;;;-0.80;99.90;;;;;;5060627;28;20043;-84
2022/11/19 08:13:50;;;;;;;13.93;9.23;;;-0.90;99.90;;;;;;5081371;28;20040;-90
2022/11/19 08:18:11;;;;;;;11.45;7.95;;;-0.90;99.90;;;;;;5076078;28;20483;-81
2022/11/19 08:19:06;;;;;;;12.65;8.85;;;-0.80;99.90;;;;;;5097169;28;20453;-85
2022/11/19 08:21:33;;;;;;;12.07;8.55;;;-0.70;99.90;;;;;;5084559;28;20197;-79
2022/11/19 08:23:59;;;;;;;11.85;8.23;;;-0.70;99.90;;;;;;5094959;28;20452;-88
2022/11/19 08:26:24;;;;;;;12.20;8.27;;;-0.60;99.90;;;;;;5092351;28;20042;-86
2022/11/19 08:28:50;;;;;;;12.68;9.20;;;-0.50;99.90;;;;;;5066201;28;20147;-88
2022/11/19 08:31:16;;;;;;;12.60;8.48;;;-0.50;99.90;;;;;;5077306;28;20043;-87
2022/11/19 08:33:42;;;;;;;13.57;9.00;;;-0.40;99.90;;;;;;5072960;28;20085;-87
2022/11/19 08:36:08;;;;;;;12.75;8.85;;;-0.30;99.90;;;;;;5076820;28;20079;-88
2022/11/19 08:38:33;;;;;;;12.90;8.55;;;-0.20;99.90;;;;;;5089847;28;20043;-86
2022/11/19 08:43:43;;;;;;;12.63;8.88;;;-0.10;99.90;;;;;;5094993;28;20047;-85
2022/11/19 08:46:09;;;;;;;12.85;9.55;;;0.60;99.90;;;;;;5090609;28;20040;-87
2022/11/19 08:48:35;;;;;;;12.85;8.50;;;0.10;99.90;;;;;;5061854;28;20047;-80
2022/11/19 08:51:05;;;;;;;12.45;9.30;;;0.20;99.90;;;;;;5075686;28;20475;-82
2022/11/19 08:53:32;;;;;;;13.40;9.60;;;0.20;99.90;;;;;;5090040;28;20541;-83
2022/11/19 08:55:57;;;;;;;11.98;9.35;;;0.20;99.90;;;;;;5075724;28;20395;-83
2022/11/19 08:58:23;;;;;;;13.63;9.70;;;0.30;99.90;;;;;;5061067;28;20044;-85
2022/11/19 09:00:50;;;;;;;11.68;7.95;;;0.40;99.90;;;;;;5095908;28;20047;-82
2022/11/19 09:03:16;;;;;;;13.32;9.55;;;0.50;99.90;;;;;;5094466;28;20100;-85
2022/11/19 09:05:42;;;;;;;12.75;8.93;;;0.60;99.90;;;;;;5093505;28;20043;-84
2022/11/19 09:08:08;;;;;;;12.07;8.20;;;0.60;99.90;;;;;;5094839;28;20387;-82
2022/11/19 09:10:35;;;;;;;11.88;9.02;;;0.60;99.90;;;;;;5059650;28;20052;-82
2022/11/19 09:13:01;;;;;;;13.02;8.80;;;1.60;99.90;;;;;;5094366;28;20044;-82
2022/11/19 09:15:27;;;;;;;12.45;8.85;;;0.60;99.90;;;;;;5092866;28;20487;-87
2022/11/19 09:17:53;;;;;;;12.57;9.55;;;0.90;99.90;;;;;;5075484;28;20066;-84
2022/11/19 09:20:19;;;;;;;12.15;9.13;;;0.60;99.90;;;;;;5073025;28;20066;-80
2022/11/19 09:23:00;;;;;;;13.60;9.50;;;0.60;99.90;;;;;;5080318;28;20403;-83
2022/11/19 09:25:25;;;;;;;13.15;8.20;;;0.80;99.90;;;;;;5074605;28;20111;-82
2022/11/19 09:27:51;;;;;;;13.40;9.23;;;0.70;99.90;;;;;;5077098;28;20047;-81
2022/11/19 09:30:17;;;;;;;12.98;8.85;;;0.70;99.90;;;;;;5091261;28;20044;-84
2022/11/19 09:32:43;;;;;;;13.75;9.13;;;0.70;99.90;;;;;;5090930;28;20044;-83
2022/11/19 09:35:09;;;;;;;12.93;9.80;;;0.80;99.90;;;;;;5076286;28;20047;-81
2022/11/19 09:37:35;;;;;;;11.75;8.38;;;0.80;99.90;;;;;;5093601;28;20047;-81
2022/11/19 09:40:01;;;;;;;11.95;8.50;;;0.80;99.90;;;;;;5093841;28;20181;-83
2022/11/19 09:42:44;;;;;;;13.20;9.18;;;1.60;99.90;;;;;;5090585;28;20040;-87
2022/11/19 09:45:25;;;;;;;13.73;8.50;;;0.80;99.90;;;;;;5079022;28;20044;-80
2022/11/19 09:47:59;;;;;;;12.07;8.52;;;1.00;99.90;;;;;;5091037;28;20043;-82
2022/11/19 09:50:30;;;;;;;11.65;8.52;;;1.70;99.90;;;;;;5075536;28;20414;-83
2022/11/19 09:53:16;;;;;;;11.70;8.93;;;1.60;99.90;;;;;;5090617;28;20044;-82
2022/11/19 09:55:44;;;;;;;13.15;8.73;;;1.30;99.90;;;;;;5074992;28;20054;-89
2022/11/19 09:58:26;;;;;;;12.40;8.57;;;1.90;99.90;;;;;;5060182;28;20046;-81
2022/11/19 10:00:51;;;;;;;13.30;9.43;;;1.30;99.90;;;;;;5090044;28;20059;-83
2022/11/19 10:03:20;;;;;;;9.07;6.13;;;1.30;99.90;;;;;;5090559;28;20044;-80
2022/11/19 10:06:05;;;;;;;11.85;8.88;;;1.40;99.90;;;;;;5070428;28;20055;-83
2022/11/19 10:08:38;;;;;;;12.93;8.88;;;1.70;99.90;;;;;;5078534;28;20047;-81
2022/11/19 10:11:36;;;;;;;11.27;8.30;;;1.40;99.90;;;;;;5074517;28;20051;-83
2022/11/19 10:14:10;;;;;;;11.27;7.95;;;1.60;99.90;;;;;;5076775;28;20054;-84
2022/11/19 10:16:51;;;;;;;13.68;9.63;;;1.70;99.90;;;;;;5091474;28;20043;-83
2022/11/19 10:19:41;;;;;;;10.85;8.13;;;1.70;99.90;;;;;;5074022;28;20048;-83
2022/11/19 10:22:21;;;;;;;11.77;8.60;;;1.70;99.90;;;;;;5079425;28;20052;-88
2022/11/19 10:25:04;;;;;;;12.48;8.73;;;1.70;99.90;;;;;;5076238;28;20047;-82
2022/11/19 10:27:35;;;;;;;11.05;7.57;;;1.80;99.90;;;;;;5060348;28;20048;-82
2022/11/19 10:30:05;;;;;;;11.93;8.55;;;1.80;99.90;;;;;;5078925;28;20472;-83
2022/11/19 10:32:34;;;;;;;11.93;8.40;;;1.80;99.90;;;;;;5060600;28;20053;-83
2022/11/19 10:35:13;;;;;;;10.82;7.47;;;1.80;99.90;;;;;;5074382;28;20048;-82
2022/11/19 10:37:45;;;;;;;11.90;7.55;;;1.90;99.90;;;;;;5083427;28;20046;-80
2022/11/19 10:40:16;;;;;;;10.20;7.30;;;1.90;99.90;;;;;;5066528;28;20051;-83
2022/11/19 10:42:47;;;;;;;13.02;8.25;;;1.90;99.90;;;;;;5063353;28;20362;-81
2022/11/19 10:45:26;;;;;;;10.37;7.40;;;2.10;99.90;;;;;;5083428;28;20224;-81
2022/11/19 10:48:10;;;;;;;8.90;6.65;;;2.00;99.90;;;;;;5065840;28;20048;-83
2022/11/19 10:50:36;;;;;;;10.05;6.78;;;2.10;99.90;;;;;;5078438;28;20043;-82
2022/11/19 10:53:17;;;;;;;10.05;7.50;;;2.10;99.90;;;;;;5065650;28;20036;-82
2022/11/19 10:55:48;;;;;;;10.05;7.53;;;2.00;99.90;;;;;;5078633;28;20032;-81
2022/11/19 10:58:37;;;;;;;8.68;6.05;;;2.10;99.90;;;;;;5079093;28;20044;-79
2022/11/19 11:01:11;;;;;;;10.43;7.05;;;2.20;99.90;;;;;;5088004;28;20055;-82
2022/11/19 11:03:53;;;;;;;9.18;6.78;;;2.00;99.90;;;;;;5081076;28;20055;-80
2022/11/19 11:06:21;;;;;;;10.47;7.20;;;2.00;99.90;;;;;;5073062;28;20082;-80
2022/11/19 11:08:52;;;;;;;9.63;6.07;;;1.90;99.90;;;;;;5065561;28;20294;-81
2022/11/19 11:17:01;;;;;;;10.13;7.03;;;1.90;99.90;;;;;;5082691;28;20044;-82
2022/11/19 11:19:29;;;;;;;10.43;6.78;;;1.90;99.90;;;;;;5084195;28;20040;-81
2022/11/19 11:21:56;;;;;;;10.18;7.00;;;2.00;99.90;;;;;;5083421;28;20060;-80
2022/11/19 11:24:31;;;;;;;9.60;6.90;;;2.00;99.90;;;;;;5064567;28;20045;-84
2022/11/19 11:27:18;;;;;;;9.02;6.00;;;2.10;99.90;;;;;;5074682;28;20051;-80
2022/11/19 11:29:43;;;;;;;10.10;6.82;;;2.00;99.90;;;;;;5085609;28;20055;-81
2022/11/19 11:32:27;;;;;;;9.25;6.15;;;2.40;99.90;;;;;;5074589;28;20369;-81
2022/11/19 11:34:52;;;;;;;9.07;6.05;;;2.90;99.90;;;;;;5076644;28;20083;-83
2022/11/19 11:37:18;;;;;;;8.93;5.90;;;2.00;99.90;;;;;;5051315;28;20420;-82
2022/11/19 11:39:51;;;;;;;9.98;6.18;;;2.30;99.90;;;;;;5071435;28;20052;-83
2022/11/19 11:42:18;;;;;;;9.02;6.05;;;2.10;99.90;;;;;;5083144;28;20068;-81
2022/11/19 11:44:56;;;;;;;9.02;6.22;;;2.10;99.90;;;;;;5081923;28;20101;-87
2022/11/19 11:47:24;;;;;;;9.25;5.93;;;2.10;99.90;;;;;;5065687;28;20075;-77
2022/11/19 11:50:07;;;;;;;9.50;6.63;;;2.40;99.90;;;;;;5067586;28;20101;-84
2022/11/19 11:52:39;;;;;;;9.50;6.88;;;2.20;99.90;;;;;;5065712;28;20051;-81
2022/11/19 11:55:11;;;;;;;;;;;2.10;99.90;;;;;;5086520;28;20040;-82
2022/11/19 11:57:50;;;;;;;8.70;5.63;;;2.20;99.90;;;;;;5062535;28;19957;-80
2022/11/19 12:00:43;;;;;;;10.35;6.72;;;2.30;99.90;;;;;;5068181;28;20052;-81
2022/11/19 12:03:17;;;;;;;9.95;7.32;;;2.10;99.90;;;;;;5079017;28;20106;-82
2022/11/19 12:06:04;;;;;;;9.70;6.55;;;2.10;99.90;;;;;;5083501;28;20044;-83
2022/11/19 12:08:42;;;;;;;11.15;7.35;;;2.10;99.90;;;;;;5067225;28;20371;-86
2022/11/19 12:11:26;;;;;;;10.25;6.72;;;2.10;99.90;;;;;;5089783;28;20051;-80
2022/11/19 12:14:08;;;;;;;9.35;6.53;;;2.20;99.90;;;;;;5071890;28;20052;-84
2022/11/19 12:16:45;;;;;;;10.00;6.45;;;2.20;99.90;;;;;;5076911;28;20435;-84
2022/11/19 12:19:23;;;;;;;8.82;6.13;;;2.20;99.90;;;;;;5082098;28;20040;-80
2022/11/19 12:22:25;;;;;;;8.63;5.90;;;2.20;99.90;;;;;;5086898;28;20064;-81
2022/11/19 12:24:50;;;;;;;8.48;5.70;;;2.30;99.90;;;;;;5079349;28;20176;-80
2022/11/19 12:27:19;;;;;;;9.10;5.88;;;2.30;99.90;;;;;;5087385;28;20081;-87
2022/11/19 12:29:53;;;;;;;8.98;6.03;;;2.30;99.90;;;;;;5073908;28;20117;-81
2022/11/19 12:32:37;;;;;;;9.27;5.82;;;2.30;99.90;;;;;;5088971;28;20040;-80
2022/11/19 12:35:11;;;;;;;8.98;5.60;;;2.40;99.90;;;;;;5086042;28;20054;-80
2022/11/19 12:37:46;;;;;;;9.30;5.72;;;2.40;99.90;;;;;;5072548;28;20044;-81
2022/11/19 12:40:32;;;;;;;8.70;5.95;;;2.40;99.90;;;;;;5073129;28;20435;-82
2022/11/19 12:43:12;;;;;;;8.73;5.60;;;2.40;99.90;;;;;;5089218;28;20047;-80
2022/11/19 12:45:56;;;;;;;8.52;6.00;;;2.50;99.90;;;;;;5087134;28;20048;-80
2022/11/19 12:48:44;;;;;;;9.80;5.90;;;2.40;99.90;;;;;;5088771;28;20138;-78
2022/11/19 12:51:28;;;;;;;9.00;6.40;;;2.50;99.90;;;;;;5089751;28;20075;-80
2022/11/19 12:54:40;;;;;;;8.20;5.50;;;2.40;99.90;;;;;;5089257;28;20135;-81
2022/11/19 12:57:14;;;;;;;9.00;5.67;;;2.40;99.90;;;;;;5080852;28;20535;-81
2022/11/19 12:59:43;;;;;;;8.65;5.90;;;2.50;99.90;;;;;;5071589;28;20138;-82
2022/11/19 13:02:27;;;;;;;9.00;5.75;;;2.40;99.90;;;;;;5089285;28;20044;-79
2022/11/19 13:05:18;;;;;;;9.27;5.95;;;2.50;99.90;;;;;;5088784;28;20464;-82
2022/11/19 13:08:00;;;;;;;8.40;5.90;;;2.50;99.90;;;;;;5084775;28;20075;-81
2022/11/19 13:10:57;;;;;;;8.60;5.93;;;2.50;99.90;;;;;;5089425;28;20047;-79
2022/11/19 13:13:27;;;;;;;8.63;5.80;;;2.50;99.90;;;;;;5087417;28;20059;-79
2022/11/19 13:16:01;;;;;;;9.38;5.80;;;2.50;99.90;;;;;;5087677;28;20135;-80
2022/11/19 13:18:31;;;;;;;9.85;5.78;;;2.50;99.90;;;;;;5072293;28;20456;-80
2022/11/19 13:21:12;;;;;;;9.07;5.97;;;2.50;99.90;;;;;;5087164;28;20052;-79
2022/11/19 13:23:41;;;;;;;11.00;5.90;;;3.30;99.90;;;;;;5062005;28;20377;-80
2022/11/19 13:26:15;;;;;;;9.15;5.75;;;2.60;99.90;;;;;;5078564;28;20052;-81
2022/11/19 13:29:19;;;;;;;8.02;5.32;;;2.50;99.90;;;;;;5078604;28;20044;-80
2022/11/19 13:31:56;;;;;;;9.90;5.50;;;2.50;99.90;;;;;;5077602;28;20416;-82
2022/11/19 13:34:46;;;;;;;9.25;5.60;;;2.50;99.90;;;;;;5079614;28;20077;-80
2022/11/19 13:37:19;;;;;;;8.40;5.28;;;2.50;99.90;;;;;;5081388;28;20051;-80